Aérodrome :
LOGIN :

S'inscrire | Disclaimer

   EN    FR    IT 

 










Légende :    VFR   VFR Marginal   IFR   IFR Intensif   IFR Très Intensif
Visi : 
Plafond : 
>= 8 km
>= 3000ft
5 à 8 km
1000 à 3000 ft
1500m à 5 km
500 à 1000 ft
800 à 1500m
200 à 500 ft
< 800m
< 200 ft
Symboles :   Orages  Brouillard  Fortes neiges  Fortes précipitations  Vent > 20 kt
SIGMETs :   Divers  Orages  Givrage  Turbulence  Onde Orograph.  Cendres Volcan.







- Altitude de l'aérodrome : 19 ft
- Code IATA : LCY
- Voir les cartes d'approche


EGLC - London City

DERNIER METAR :
  • 150950Z AUTO 02004KT 330V090 9999 OVC005 14/13 Q1010

METARs EXPIRÉS :
  • 150920Z AUTO VRB03KT 9999 OVC004 14/13 Q1010
  • 150850Z AUTO VRB04KT 9999 OVC005 14/13 Q1009
  • 150820Z VRB03KT 9999 OVC006 14/13 Q1009
  • 150750Z AUTO 35004KT 280V050 9999 OVC005/// //////TCU 13/13 Q1009
  • 150720Z VRB03KT 8000 -RA OVC006CB 13/13 Q1008 RERA

TAF TAF EGLC
Valide du 15 à 09h jusqu'au 15 à 18h UTC


150805Z 1509/1518 03008KT 9999 BKN006
TEMPO 1509/1511 3000 RADZ BKN004
TEMPO 1511/1518 8000 -RA
PROB40 1511/1518 SCT010
ATIS : +44 20 7646 0224
Pas de NOTAMs connus pour ce terrain.
2 SIGMETs publiés pour la FIR London (EGTT) :
 
Annulation du SIGMET 02
EGTT SIGMET 03 VALID 150705/151100 EGRR
EGTT LONDON FIR CNL SIGMET 02 150700/151100=
SIGMET 02  ANNULÉ :
Orages noyés dans la masse
EGTT SIGMET 02 VALID 150700/151100 EGRR
EGTT LONDON FIR EMBD TS FCST WI N5427 E00255 - N5135 E00126 - N5103 W00016 - N5236 W00022 - N5427 E00255 TOP FL280 MOV NE 10KT WKN=



MET'MAP, la Météo Aéronautique d'un coup d'oeil ! - Copyright ORBIFLY Décembre 2007 - Disclaimer

ORBIFLY MET'MAP TEAM :

Programmation & Développement : Alexandra Zaïnal
Conception & Développement : Baudouin d'Aumeries
Co-Programmation & Développement : Marc-Olivier Méhu
Soutien technique & logistique : Manuel Goepfert

Contact : metmap@orbifly.com




SOURCES & CREDITS :

   NOAA